createdAt,value
2022-12-28T00:00:42.229Z,5.94
2022-12-28T00:04:44.318Z,5.93
2022-12-28T00:08:46.596Z,5.92
2022-12-28T00:12:48.721Z,5.92
2022-12-28T00:16:50.448Z,5.97
2022-12-28T00:21:00.130Z,6.00
2022-12-28T00:25:01.889Z,6.05
2022-12-28T00:29:05.485Z,6.11
2022-12-28T00:33:07.394Z,6.15
2022-12-28T00:37:12.931Z,6.18
2022-12-28T00:41:15.159Z,6.23
2022-12-28T00:45:17.966Z,6.28
2022-12-28T00:49:19.753Z,6.31
2022-12-28T00:53:21.565Z,6.34
2022-12-28T00:57:23.319Z,6.36
2022-12-28T01:01:27.516Z,6.38
2022-12-28T01:05:29.393Z,6.41
2022-12-28T01:09:31.379Z,6.45
2022-12-28T01:13:33.152Z,6.49
2022-12-28T01:17:34.980Z,6.54
2022-12-28T01:21:37.331Z,6.59
2022-12-28T01:25:39.114Z,6.63
2022-12-28T01:29:40.876Z,6.65
2022-12-28T01:33:43.485Z,6.67
2022-12-28T01:37:45.450Z,6.69
2022-12-28T01:41:47.328Z,6.72
2022-12-28T01:45:52.982Z,6.77
2022-12-28T01:50:03.486Z,6.78
2022-12-28T01:54:05.645Z,6.79
2022-12-28T01:58:13.163Z,6.81
2022-12-28T02:02:16.036Z,6.82
2022-12-28T02:06:18.128Z,6.84
2022-12-28T02:10:43.966Z,6.87
2022-12-28T02:14:44.646Z,6.90
2022-12-28T02:18:47.868Z,6.91
2022-12-28T02:23:18.445Z,6.94
2022-12-28T02:27:23.059Z,6.98
2022-12-28T02:31:44.571Z,7.00
2022-12-28T02:35:57.231Z,7.04
2022-12-28T02:40:08.277Z,7.09
2022-12-28T02:44:12.385Z,7.12
2022-12-28T02:48:32.715Z,7.14
2022-12-28T02:52:55.087Z,7.15
2022-12-28T02:57:08.142Z,7.16
2022-12-28T03:01:15.702Z,7.17
2022-12-28T03:06:10.758Z,7.18
2022-12-28T03:10:17.568Z,7.20
2022-12-28T03:14:27.048Z,7.23
2022-12-28T03:18:49.530Z,7.24
2022-12-28T03:23:13.614Z,7.25
2022-12-28T03:27:37.216Z,7.27
2022-12-28T03:31:40.074Z,7.30
2022-12-28T03:36:10.383Z,7.32
2022-12-28T03:40:31.450Z,7.34
2022-12-28T03:44:35.791Z,7.36
2022-12-28T03:48:38.269Z,7.36
2022-12-28T03:52:41.182Z,7.37
2022-12-28T03:56:48.685Z,7.40
2022-12-28T04:00:50.588Z,7.44
2022-12-28T04:04:55.356Z,7.46
2022-12-28T04:08:57.094Z,7.50
2022-12-28T04:13:01.821Z,7.51
2022-12-28T04:17:41.865Z,7.50
2022-12-28T04:21:43.626Z,7.52
2022-12-28T04:26:03.326Z,7.54
2022-12-28T04:30:05.801Z,7.57
2022-12-28T04:34:11.292Z,7.58
2022-12-28T04:38:16.482Z,7.59
2022-12-28T04:42:18.331Z,7.61
2022-12-28T04:46:20.058Z,7.62
2022-12-28T04:50:21.755Z,7.64
2022-12-28T04:54:23.426Z,7.66
2022-12-28T04:58:25.175Z,7.68
2022-12-28T05:02:27.099Z,7.69
2022-12-28T05:06:29.519Z,7.72
2022-12-28T05:10:32.759Z,7.72
2022-12-28T05:14:37.150Z,7.75
2022-12-28T05:18:39.497Z,7.74
2022-12-28T05:22:41.360Z,7.75
2022-12-28T05:26:43.092Z,7.75
2022-12-28T05:30:44.805Z,7.77
2022-12-28T05:34:46.518Z,7.78
2022-12-28T05:38:48.367Z,7.81
2022-12-28T05:42:51.754Z,7.83
2022-12-28T05:46:53.726Z,7.87
2022-12-28T05:50:59.682Z,7.91
2022-12-28T05:55:01.668Z,7.94
2022-12-28T05:59:06.977Z,7.96
2022-12-28T06:03:09.026Z,7.98
2022-12-28T06:07:10.904Z,8.00
2022-12-28T06:11:15.728Z,8.01
2022-12-28T06:15:17.545Z,8.02
2022-12-28T06:19:19.415Z,8.05
2022-12-28T06:23:21.222Z,8.07
2022-12-28T06:27:22.936Z,8.07
2022-12-28T06:31:27.256Z,8.07
2022-12-28T06:35:29.140Z,8.07
2022-12-28T06:39:30.893Z,8.06
2022-12-28T06:43:33.766Z,8.06
2022-12-28T06:47:37.220Z,8.07
2022-12-28T06:51:41.594Z,8.08
2022-12-28T06:55:43.332Z,8.09
2022-12-28T06:59:45.759Z,8.10
2022-12-28T07:03:50.035Z,8.11
2022-12-28T07:07:51.787Z,8.11
2022-12-28T07:11:53.551Z,8.12
2022-12-28T07:15:55.267Z,8.13
2022-12-28T07:19:57.048Z,8.15
2022-12-28T07:23:59.543Z,8.16
2022-12-28T07:28:01.289Z,8.18
2022-12-28T07:32:03.282Z,8.19
2022-12-28T07:36:07.257Z,8.19
2022-12-28T07:40:09.713Z,8.20
2022-12-28T07:44:11.547Z,8.22
2022-12-28T07:48:13.282Z,8.24
2022-12-28T07:52:15.027Z,8.26
2022-12-28T07:56:18.144Z,8.29
2022-12-28T08:00:19.941Z,8.30
2022-12-28T08:04:21.721Z,8.33
2022-12-28T08:08:23.548Z,8.34
2022-12-28T08:12:25.974Z,8.36
2022-12-28T08:16:29.642Z,8.38
2022-12-28T08:20:32.187Z,8.38
2022-12-28T08:24:35.675Z,8.39
2022-12-28T08:28:38.471Z,8.40
2022-12-28T08:32:40.201Z,8.41
2022-12-28T08:36:42.760Z,8.43
2022-12-28T08:40:44.444Z,8.44
2022-12-28T08:44:46.180Z,8.46
2022-12-28T08:48:49.661Z,8.48
2022-12-28T08:52:51.385Z,8.51
2022-12-28T08:56:53.597Z,8.54
2022-12-28T09:00:55.337Z,8.55
2022-12-28T09:04:57.118Z,8.57
2022-12-28T09:09:06.286Z,8.60
2022-12-28T09:13:08.766Z,8.61
2022-12-28T09:17:10.581Z,8.61
2022-12-28T09:21:15.602Z,8.61
2022-12-28T09:25:17.377Z,8.59
2022-12-28T09:29:19.175Z,8.59
2022-12-28T09:34:05.543Z,8.57
2022-12-28T09:38:01.162Z,8.56
2022-12-28T09:42:03.165Z,8.58
2022-12-28T09:46:05.017Z,8.57
2022-12-28T09:50:16.232Z,8.59
2022-12-28T09:54:18.193Z,8.62
2022-12-28T09:58:21.146Z,8.66
2022-12-28T10:02:31.920Z,8.71
2022-12-28T10:06:37.375Z,8.73
2022-12-28T10:10:45.308Z,8.77
2022-12-28T10:14:50.914Z,8.77
2022-12-28T10:18:52.949Z,8.76
2022-12-28T10:22:57.127Z,8.76
2022-12-28T10:27:01.597Z,8.76
2022-12-28T10:31:13.069Z,8.74
2022-12-28T10:35:23.209Z,8.68
2022-12-28T10:39:30.052Z,8.64
2022-12-28T10:43:38.982Z,8.56
2022-12-28T10:47:43.781Z,8.52
2022-12-28T10:52:20.267Z,8.48
2022-12-28T10:56:27.423Z,8.47
2022-12-28T11:00:29.211Z,8.47
2022-12-28T11:04:30.946Z,8.47
2022-12-28T11:08:32.882Z,8.47
2022-12-28T11:12:42.015Z,8.45
2022-12-28T11:16:44.467Z,8.44
2022-12-28T11:20:49.665Z,8.43
2022-12-28T11:24:51.600Z,8.41
2022-12-28T11:28:54.321Z,8.41
2022-12-28T11:32:59.591Z,8.40
2022-12-28T11:37:01.618Z,8.38
2022-12-28T11:41:03.614Z,8.40
2022-12-28T11:45:15.878Z,8.39
2022-12-28T11:49:28.019Z,8.38
2022-12-28T11:53:32.921Z,8.37
2022-12-28T11:57:43.247Z,8.37
2022-12-28T12:01:46.029Z,8.37
2022-12-28T12:05:49.183Z,8.36
2022-12-28T12:10:13.158Z,8.37
2022-12-28T12:14:18.418Z,8.36
2022-12-28T12:18:26.573Z,8.37
2022-12-28T12:23:09.571Z,8.35
2022-12-28T12:27:19.558Z,8.36
2022-12-28T12:31:31.194Z,8.34
2022-12-28T12:35:54.798Z,8.37
2022-12-28T12:40:08.225Z,8.38
2022-12-28T12:44:19.083Z,8.43
2022-12-28T12:48:39.137Z,8.45
2022-12-28T12:53:22.418Z,8.47
2022-12-28T12:57:35.959Z,8.51
2022-12-28T13:01:48.302Z,8.53
2022-12-28T13:05:54.092Z,8.57
2022-12-28T13:09:59.563Z,8.59
2022-12-28T13:14:01.400Z,8.62
2022-12-28T13:18:44.171Z,8.61
2022-12-28T13:22:42.575Z,8.63
2022-12-28T13:26:47.115Z,8.66
2022-12-28T13:31:07.857Z,8.70
2022-12-28T13:35:21.532Z,8.72
2022-12-28T13:39:25.250Z,8.75
2022-12-28T13:44:00.648Z,8.79
2022-12-28T13:48:04.258Z,8.83
2022-12-28T13:52:10.422Z,8.86
2022-12-28T13:56:14.658Z,8.89
2022-12-28T14:00:21.249Z,8.90
2022-12-28T14:04:51.723Z,8.94
2022-12-28T14:08:48.258Z,8.96
2022-12-28T14:12:51.645Z,8.98
2022-12-28T14:16:53.634Z,9.01
2022-12-28T14:20:58.101Z,9.02
2022-12-28T14:25:05.192Z,9.03
2022-12-28T14:29:19.384Z,9.04
2022-12-28T14:33:26.660Z,9.03
2022-12-28T14:37:35.263Z,9.03
2022-12-28T14:41:45.756Z,9.03
2022-12-28T14:46:07.072Z,9.03
2022-12-28T14:50:19.048Z,9.03
2022-12-28T14:54:23.921Z,8.98
2022-12-28T14:58:29.076Z,8.99
2022-12-28T15:02:33.996Z,8.97
2022-12-28T15:06:35.789Z,8.96
2022-12-28T15:10:53.590Z,8.93
2022-12-28T15:14:55.311Z,8.90
2022-12-28T15:18:57.953Z,8.87
2022-12-28T15:22:59.722Z,8.84
2022-12-28T15:27:02.828Z,8.83
2022-12-28T15:31:09.824Z,8.80
2022-12-28T15:35:11.877Z,8.78
2022-12-28T15:39:14.746Z,8.77
2022-12-28T15:43:16.457Z,8.72
2022-12-28T15:47:18.471Z,8.70
2022-12-28T15:51:20.243Z,8.66
2022-12-28T15:55:21.907Z,8.63
2022-12-28T15:59:23.827Z,8.62
2022-12-28T16:03:25.591Z,8.59
2022-12-28T16:07:27.415Z,8.59
2022-12-28T16:11:30.315Z,8.56
2022-12-28T16:15:32.246Z,8.55
2022-12-28T16:19:33.989Z,8.53
2022-12-28T16:23:41.151Z,8.53
2022-12-28T16:27:42.900Z,8.50
2022-12-28T16:31:44.761Z,8.50
2022-12-28T16:35:51.785Z,8.48
2022-12-28T16:39:56.233Z,8.46
2022-12-28T16:44:03.866Z,8.45
2022-12-28T16:48:07.527Z,8.42
2022-12-28T16:52:10.501Z,8.40
2022-12-28T16:56:12.357Z,8.38
2022-12-28T17:00:14.415Z,8.37
2022-12-28T17:04:16.330Z,8.38
2022-12-28T17:08:18.735Z,8.37
2022-12-28T17:12:20.636Z,8.36
2022-12-28T17:16:22.444Z,8.38
2022-12-28T17:20:25.596Z,8.39
2022-12-28T17:24:27.459Z,8.38
2022-12-28T17:28:29.678Z,8.39
2022-12-28T17:32:31.592Z,8.39
2022-12-28T17:36:33.340Z,8.39
2022-12-28T17:40:35.124Z,8.40
2022-12-28T17:44:36.840Z,8.41
2022-12-28T17:48:38.536Z,8.40
2022-12-28T17:52:41.919Z,8.38
2022-12-28T17:56:43.999Z,8.39
2022-12-28T18:00:45.746Z,8.39
2022-12-28T18:04:48.242Z,8.39
2022-12-28T18:08:49.948Z,8.41
2022-12-28T18:12:51.792Z,8.42
2022-12-28T18:16:55.122Z,8.43
2022-12-28T18:21:00.106Z,8.46
2022-12-28T18:25:01.882Z,8.47
2022-12-28T18:29:03.846Z,8.49
2022-12-28T18:33:05.661Z,8.49
2022-12-28T18:37:07.559Z,8.50
2022-12-28T18:41:11.183Z,8.54
2022-12-28T18:45:13.103Z,8.56
2022-12-28T18:49:14.894Z,8.60
2022-12-28T18:53:16.617Z,8.62
2022-12-28T18:57:18.352Z,8.65
2022-12-28T19:02:05.760Z,8.68
2022-12-28T19:05:47.136Z,8.70
2022-12-28T19:10:12.702Z,8.72
2022-12-28T19:14:15.926Z,8.73
2022-12-28T19:18:17.837Z,8.74
2022-12-28T19:22:19.681Z,8.75
2022-12-28T19:26:23.087Z,8.77
2022-12-28T19:30:24.933Z,8.80
2022-12-28T19:34:26.696Z,8.83
2022-12-28T19:38:28.427Z,8.85
2022-12-28T19:42:30.173Z,8.90
2022-12-28T19:46:32.597Z,8.96
2022-12-28T19:50:34.460Z,9.01
2022-12-28T19:54:37.735Z,9.04
2022-12-28T19:58:40.166Z,9.07
2022-12-28T20:02:42.026Z,9.10
2022-12-28T20:06:44.574Z,9.12
2022-12-28T20:10:54.174Z,9.14
2022-12-28T20:14:55.896Z,9.16
2022-12-28T20:18:58.007Z,9.18
2022-12-28T20:22:59.725Z,9.21
2022-12-28T20:27:02.059Z,9.23
2022-12-28T20:31:08.957Z,9.28
2022-12-28T20:35:10.982Z,9.31
2022-12-28T20:39:12.804Z,9.34
2022-12-28T20:43:23.430Z,9.38
2022-12-28T20:47:25.723Z,9.44
2022-12-28T20:51:28.215Z,9.47
2022-12-28T20:55:30.017Z,9.48
2022-12-28T20:59:31.816Z,9.49
2022-12-28T21:03:33.667Z,9.52
2022-12-28T21:07:35.474Z,9.56
2022-12-28T21:11:37.214Z,9.62
2022-12-28T21:15:42.822Z,9.63
2022-12-28T21:19:44.590Z,9.65
2022-12-28T21:23:46.389Z,9.65
2022-12-28T21:27:48.190Z,9.66
2022-12-28T21:31:51.720Z,9.66
2022-12-28T21:36:05.963Z,9.67
2022-12-28T21:40:09.375Z,9.69
2022-12-28T21:44:13.790Z,9.71
2022-12-28T21:48:15.529Z,9.73
2022-12-28T21:52:17.430Z,9.73
2022-12-28T21:56:19.149Z,9.75
2022-12-28T22:00:39.906Z,9.75
2022-12-28T22:05:03.398Z,9.75
2022-12-28T22:09:23.819Z,9.77
2022-12-28T22:13:25.610Z,9.76
2022-12-28T22:17:27.420Z,9.74
2022-12-28T22:21:29.558Z,9.72
2022-12-28T22:25:31.607Z,9.71
2022-12-28T22:29:33.356Z,9.69
2022-12-28T22:33:35.157Z,9.67
2022-12-28T22:37:37.296Z,9.63
2022-12-28T22:41:38.980Z,9.61
2022-12-28T22:45:40.873Z,9.60
2022-12-28T22:49:42.772Z,9.59
2022-12-28T22:53:44.952Z,9.59
2022-12-28T22:57:46.779Z,9.60
2022-12-28T23:01:48.709Z,9.60
2022-12-28T23:05:52.679Z,9.62
2022-12-28T23:09:54.402Z,9.64
2022-12-28T23:14:17.992Z,9.66
2022-12-28T23:18:38.128Z,9.67
2022-12-28T23:22:58.530Z,9.69
2022-12-28T23:27:19.338Z,9.70
2022-12-28T23:31:21.067Z,9.73
2022-12-28T23:35:25.387Z,9.74
2022-12-28T23:39:27.383Z,9.74
2022-12-28T23:43:29.118Z,9.75
2022-12-28T23:47:31.043Z,9.79
2022-12-28T23:51:33.008Z,9.81
2022-12-28T23:55:35.759Z,9.83
2022-12-28T23:59:37.673Z,9.84
